HALJA LOWW-LHBP
Flight info
| Callsign | HALJA |
|---|---|
| Flight time | 0h 24m |
| Altitude | 21000 |
| Route | ADAMA Z647 ANEXA |
| Aircraft | A320/M-SDE3FGHIRWY/LB1 |
Departure
| Time | 2026-05-05 14:09 |
|---|---|
| Airport | Vienna International Airport (LOWW) |
Arrival
| Time | 2026-05-05 14:33 |
|---|---|
| Airport | Budapest Liszt Ferenc International Airport (LHBP) |
| Time | Latitude | Longitude | Altitude | Speed | Heading |
|---|---|---|---|---|---|
| 2026-05-05 13:51 | 48.12024 | 16.56927 | 607 ft | 0 kts | 26° |
| 2026-05-05 13:59 | 48.12001 | 16.56911 | 606 ft | 2 kts | 27° |
| 2026-05-05 13:59 | 48.11989 | 16.56902 | 606 ft | 1 kts | 53° |
| 2026-05-05 14:00 | 48.11989 | 16.56875 | 606 ft | 1 kts | 121° |
| 2026-05-05 14:00 | 48.11990 | 16.56871 | 606 ft | 0 kts | 117° |
| 2026-05-05 14:03 | 48.11980 | 16.56900 | 607 ft | 8 kts | 118° |
| 2026-05-05 14:03 | 48.11954 | 16.56979 | 607 ft | 8 kts | 117° |
| 2026-05-05 14:03 | 48.11929 | 16.57055 | 607 ft | 7 kts | 117° |
| 2026-05-05 14:03 | 48.11904 | 16.57126 | 607 ft | 7 kts | 118° |
| 2026-05-05 14:04 | 48.11876 | 16.57190 | 607 ft | 7 kts | 128° |
| 2026-05-05 14:04 | 48.11846 | 16.57253 | 607 ft | 7 kts | 107° |
| 2026-05-05 14:04 | 48.11855 | 16.57308 | 607 ft | 6 kts | 15° |
| 2026-05-05 14:04 | 48.11906 | 16.57310 | 607 ft | 8 kts | 351° |
| 2026-05-05 14:05 | 48.11970 | 16.57304 | 607 ft | 10 kts | 28° |
| 2026-05-05 14:05 | 48.12007 | 16.57406 | 607 ft | 11 kts | 77° |
| 2026-05-05 14:05 | 48.12009 | 16.57525 | 607 ft | 11 kts | 104° |
| 2026-05-05 14:05 | 48.12001 | 16.57567 | 607 ft | 0 kts | 108° |
| 2026-05-05 14:07 | 48.12000 | 16.57568 | 607 ft | 0 kts | 109° |
| 2026-05-05 14:07 | 48.11982 | 16.57665 | 607 ft | 10 kts | 106° |
| 2026-05-05 14:07 | 48.11959 | 16.57769 | 607 ft | 10 kts | 116° |
| 2026-05-05 14:07 | 48.11912 | 16.57841 | 607 ft | 5 kts | 158° |
| 2026-05-05 14:08 | 48.11911 | 16.57842 | 607 ft | 0 kts | 158° |
| 2026-05-05 14:08 | 48.11910 | 16.57842 | 607 ft | 0 kts | 158° |
| 2026-05-05 14:08 | 48.11717 | 16.57921 | 607 ft | 59 kts | 167° |
| 2026-05-05 14:08 | 48.11134 | 16.58156 | 607 ft | 117 kts | 164° |
| 2026-05-05 14:09 | 48.10197 | 16.58620 | 932 ft | 152 kts | 165° |
| 2026-05-05 14:09 | 48.09188 | 16.59052 | 1772 ft | 155 kts | 168° |
| 2026-05-05 14:09 | 48.08145 | 16.59475 | 2630 ft | 165 kts | 168° |
| 2026-05-05 14:09 | 48.06991 | 16.59943 | 3426 ft | 183 kts | 167° |
| 2026-05-05 14:10 | 48.05761 | 16.60653 | 4326 ft | 200 kts | 153° |
| 2026-05-05 14:10 | 48.04714 | 16.62042 | 5367 ft | 214 kts | 134° |
| 2026-05-05 14:10 | 48.03999 | 16.64036 | 6439 ft | 229 kts | 112° |
| 2026-05-05 14:10 | 48.03792 | 16.66397 | 7515 ft | 242 kts | 96° |
| 2026-05-05 14:11 | 48.03824 | 16.68979 | 8407 ft | 260 kts | 93° |
| 2026-05-05 14:11 | 48.03897 | 16.71794 | 9269 ft | 280 kts | 92° |
| 2026-05-05 14:11 | 48.03971 | 16.74759 | 10107 ft | 299 kts | 92° |
| 2026-05-05 14:11 | 48.04044 | 16.77981 | 10945 ft | 319 kts | 92° |
| 2026-05-05 14:12 | 48.04091 | 16.81395 | 11750 ft | 339 kts | 94° |
| 2026-05-05 14:12 | 48.03921 | 16.84977 | 12536 ft | 356 kts | 100° |
| 2026-05-05 14:12 | 48.03469 | 16.88662 | 13561 ft | 366 kts | 105° |
| 2026-05-05 14:12 | 48.02904 | 16.92347 | 14736 ft | 371 kts | 105° |
| 2026-05-05 14:13 | 48.02315 | 16.96065 | 15826 ft | 377 kts | 105° |
| 2026-05-05 14:13 | 48.01704 | 16.99933 | 16825 ft | 383 kts | 105° |
| 2026-05-05 14:13 | 48.01167 | 17.03818 | 17841 ft | 390 kts | 101° |
| 2026-05-05 14:13 | 48.00790 | 17.07830 | 18817 ft | 397 kts | 98° |
| 2026-05-05 14:14 | 48.00474 | 17.11927 | 19770 ft | 403 kts | 97° |
| 2026-05-05 14:14 | 48.00162 | 17.16112 | 20414 ft | 414 kts | 97° |
| 2026-05-05 14:14 | 47.99833 | 17.20492 | 20875 ft | 429 kts | 97° |
| 2026-05-05 14:14 | 47.99485 | 17.25037 | 20851 ft | 454 kts | 97° |
| 2026-05-05 14:15 | 47.99115 | 17.29818 | 21011 ft | 471 kts | 97° |
| 2026-05-05 14:15 | 47.98715 | 17.34625 | 21745 ft | 474 kts | 98° |
| 2026-05-05 14:15 | 47.98199 | 17.39473 | 22408 ft | 472 kts | 99° |
| 2026-05-05 14:15 | 47.97670 | 17.44245 | 22803 ft | 460 kts | 99° |
| 2026-05-05 14:16 | 47.97147 | 17.48885 | 22787 ft | 448 kts | 99° |
| 2026-05-05 14:16 | 47.96639 | 17.53390 | 22129 ft | 439 kts | 100° |
| 2026-05-05 14:16 | 47.96136 | 17.57837 | 21308 ft | 422 kts | 100° |
| 2026-05-05 14:16 | 47.95655 | 17.62068 | 20580 ft | 410 kts | 100° |
| 2026-05-05 14:17 | 47.95182 | 17.66226 | 20049 ft | 399 kts | 101° |
| 2026-05-05 14:17 | 47.94727 | 17.70211 | 19546 ft | 390 kts | 101° |
| 2026-05-05 14:17 | 47.94270 | 17.74195 | 19028 ft | 383 kts | 101° |
| 2026-05-05 14:17 | 47.93824 | 17.78077 | 18508 ft | 379 kts | 101° |
| 2026-05-05 14:18 | 47.93374 | 17.81965 | 17995 ft | 377 kts | 102° |
| 2026-05-05 14:18 | 47.92930 | 17.85804 | 17503 ft | 375 kts | 102° |
| 2026-05-05 14:18 | 47.92487 | 17.89631 | 17034 ft | 373 kts | 102° |
| 2026-05-05 14:18 | 47.92044 | 17.93441 | 16576 ft | 371 kts | 102° |
| 2026-05-05 14:19 | 47.91610 | 17.97172 | 16127 ft | 368 kts | 102° |
| 2026-05-05 14:19 | 47.91166 | 18.00968 | 15668 ft | 366 kts | 102° |
| 2026-05-05 14:19 | 47.90733 | 18.04657 | 15231 ft | 363 kts | 103° |
| 2026-05-05 14:19 | 47.90303 | 18.08324 | 14801 ft | 360 kts | 103° |
| 2026-05-05 14:20 | 47.89865 | 18.12028 | 14348 ft | 357 kts | 103° |
| 2026-05-05 14:20 | 47.89434 | 18.15672 | 13904 ft | 354 kts | 103° |
| 2026-05-05 14:20 | 47.89012 | 18.19228 | 13476 ft | 351 kts | 104° |
| 2026-05-05 14:20 | 47.88584 | 18.22817 | 13030 ft | 349 kts | 104° |
| 2026-05-05 14:21 | 47.88153 | 18.26414 | 12570 ft | 347 kts | 104° |
| 2026-05-05 14:21 | 47.87734 | 18.29910 | 12113 ft | 345 kts | 104° |
| 2026-05-05 14:21 | 47.87312 | 18.33419 | 11659 ft | 344 kts | 104° |
| 2026-05-05 14:21 | 47.86894 | 18.36893 | 11204 ft | 342 kts | 104° |
| 2026-05-05 14:22 | 47.86476 | 18.40344 | 10757 ft | 340 kts | 104° |
| 2026-05-05 14:22 | 47.86063 | 18.43769 | 10457 ft | 331 kts | 104° |
| 2026-05-05 14:22 | 47.85601 | 18.47061 | 10296 ft | 315 kts | 112° |
| 2026-05-05 14:22 | 47.84762 | 18.49920 | 10139 ft | 297 kts | 125° |
| 2026-05-05 14:23 | 47.83599 | 18.52399 | 10009 ft | 282 kts | 131° |
| 2026-05-05 14:23 | 47.82423 | 18.54662 | 9891 ft | 271 kts | 132° |
| 2026-05-05 14:23 | 47.81258 | 18.56874 | 9550 ft | 271 kts | 133° |
| 2026-05-05 14:23 | 47.80099 | 18.59080 | 9181 ft | 271 kts | 132° |
| 2026-05-05 14:24 | 47.78946 | 18.61287 | 8832 ft | 270 kts | 132° |
| 2026-05-05 14:24 | 47.77798 | 18.63490 | 8480 ft | 269 kts | 132° |
| 2026-05-05 14:24 | 47.76659 | 18.65679 | 8142 ft | 267 kts | 132° |
| 2026-05-05 14:24 | 47.75520 | 18.67872 | 7801 ft | 266 kts | 132° |
| 2026-05-05 14:25 | 47.74394 | 18.70041 | 7463 ft | 264 kts | 132° |
| 2026-05-05 14:25 | 47.73264 | 18.72218 | 7122 ft | 263 kts | 132° |
| 2026-05-05 14:25 | 47.72156 | 18.74351 | 6790 ft | 261 kts | 132° |
| 2026-05-05 14:25 | 47.71043 | 18.76490 | 6457 ft | 259 kts | 131° |
| 2026-05-05 14:26 | 47.69938 | 18.78614 | 6126 ft | 258 kts | 131° |
| 2026-05-05 14:26 | 47.68843 | 18.80721 | 5797 ft | 257 kts | 132° |
| 2026-05-05 14:26 | 47.67742 | 18.82833 | 5472 ft | 255 kts | 131° |
| 2026-05-05 14:26 | 47.66656 | 18.84914 | 5156 ft | 254 kts | 131° |
| 2026-05-05 14:27 | 47.65575 | 18.86983 | 4834 ft | 252 kts | 131° |
| 2026-05-05 14:27 | 47.64506 | 18.89028 | 4518 ft | 251 kts | 131° |
| 2026-05-05 14:27 | 47.63434 | 18.91080 | 4200 ft | 250 kts | 131° |
| 2026-05-05 14:27 | 47.62379 | 18.93098 | 3934 ft | 252 kts | 131° |
| 2026-05-05 14:28 | 47.61326 | 18.95112 | 3883 ft | 237 kts | 131° |
| 2026-05-05 14:28 | 47.60332 | 18.96980 | 3881 ft | 221 kts | 134° |
| 2026-05-05 14:28 | 47.59349 | 18.98609 | 3883 ft | 210 kts | 136° |
| 2026-05-05 14:28 | 47.58363 | 19.00203 | 3888 ft | 210 kts | 136° |
| 2026-05-05 14:29 | 47.57373 | 19.01801 | 3877 ft | 211 kts | 135° |
| 2026-05-05 14:29 | 47.56397 | 19.03436 | 3670 ft | 213 kts | 135° |
| 2026-05-05 14:29 | 47.55417 | 19.05069 | 3372 ft | 206 kts | 135° |
| 2026-05-05 14:29 | 47.54459 | 19.06634 | 3182 ft | 199 kts | 136° |
| 2026-05-05 14:30 | 47.53577 | 19.08061 | 2906 ft | 180 kts | 136° |
| 2026-05-05 14:30 | 47.52778 | 19.09349 | 2677 ft | 160 kts | 137° |
| 2026-05-05 14:30 | 47.52054 | 19.10512 | 2434 ft | 147 kts | 137° |
| 2026-05-05 14:30 | 47.51368 | 19.11610 | 2235 ft | 144 kts | 138° |
| 2026-05-05 14:31 | 47.50686 | 19.12703 | 2056 ft | 146 kts | 138° |
| 2026-05-05 14:31 | 47.49995 | 19.13815 | 1879 ft | 145 kts | 137° |
| 2026-05-05 14:31 | 47.49316 | 19.14910 | 1704 ft | 144 kts | 137° |
| 2026-05-05 14:31 | 47.48639 | 19.16004 | 1516 ft | 146 kts | 138° |
| 2026-05-05 14:32 | 47.47955 | 19.17107 | 1338 ft | 145 kts | 138° |
| 2026-05-05 14:32 | 47.47264 | 19.18223 | 1150 ft | 147 kts | 137° |
| 2026-05-05 14:32 | 47.46576 | 19.19336 | 947 ft | 145 kts | 138° |
| 2026-05-05 14:32 | 47.45885 | 19.20441 | 775 ft | 146 kts | 136° |
| 2026-05-05 14:33 | 47.45226 | 19.21522 | 573 ft | 138 kts | 136° |
| 2026-05-05 14:33 | 47.44614 | 19.22504 | 451 ft | 119 kts | 137° |
| 2026-05-05 14:33 | 47.44236 | 19.23094 | 447 ft | 45 kts | 131° |
| 2026-05-05 14:33 | 47.44027 | 19.23430 | 445 ft | 36 kts | 132° |
| 2026-05-05 14:34 | 47.43883 | 19.23668 | 443 ft | 29 kts | 133° |
| 2026-05-05 14:34 | 47.43775 | 19.23679 | 442 ft | 15 kts | 245° |
| 2026-05-05 14:34 | 47.43761 | 19.23528 | 443 ft | 14 kts | 262° |
| 2026-05-05 14:34 | 47.43744 | 19.23381 | 443 ft | 14 kts | 259° |
| 2026-05-05 14:35 | 47.43731 | 19.23233 | 443 ft | 14 kts | 262° |
| 2026-05-05 14:35 | 47.43716 | 19.23083 | 443 ft | 14 kts | 260° |
| 2026-05-05 14:35 | 47.43685 | 19.22941 | 443 ft | 13 kts | 203° |
| 2026-05-05 14:35 | 47.43597 | 19.22996 | 442 ft | 14 kts | 140° |
| 2026-05-05 14:36 | 47.43516 | 19.23094 | 441 ft | 15 kts | 142° |
| 2026-05-05 14:36 | 47.43436 | 19.23202 | 441 ft | 15 kts | 122° |
| 2026-05-05 14:36 | 47.43387 | 19.23349 | 440 ft | 16 kts | 115° |
| 2026-05-05 14:36 | 47.43336 | 19.23503 | 440 ft | 16 kts | 116° |
| 2026-05-05 14:37 | 47.43285 | 19.23661 | 439 ft | 17 kts | 115° |
| 2026-05-05 14:37 | 47.43230 | 19.23823 | 438 ft | 17 kts | 116° |
| 2026-05-05 14:37 | 47.43172 | 19.23987 | 438 ft | 18 kts | 117° |
| 2026-05-05 14:37 | 47.43092 | 19.24096 | 437 ft | 15 kts | 190° |
| 2026-05-05 14:38 | 47.43013 | 19.24003 | 437 ft | 14 kts | 267° |
| 2026-05-05 14:38 | 47.43070 | 19.23932 | 437 ft | 7 kts | 351° |
| 2026-05-05 14:38 | 47.43090 | 19.23926 | 437 ft | 0 kts | 349° |
| 2026-05-05 14:39 | 47.43092 | 19.23926 | 437 ft | 0 kts | 349° |